Time;durP1;ratioP1;P1;durP2;ratioP2;P2;SDS_P1;SDS_P2;PMS_P1;PMS_P2;Temp;Humidity;BMP_temperature;BMP_pressure;BME280_temperature;BME280_humidity;BME280_pressure;Samples;Min_cycle;Max_cycle;Signal;HPM_P1;HPM_P2
2023/01/18 00:00:27;;;;;;;7.85;4.70;;;;;;;;;;5078300;28;20052;-72
2023/01/18 00:02:54;;;;;;;7.93;5.38;;;;;;;;;;5083600;28;20053;-71
2023/01/18 00:05:24;;;;;;;8.93;5.53;;;;;;;;;;5076606;28;20114;-71
2023/01/18 00:07:53;;;;;;;5.63;4.38;;;;;;;;;;5076173;28;20059;-70
2023/01/18 00:10:21;;;;;;;7.15;4.68;;;;;;;;;;5088796;28;20049;-72
2023/01/18 00:12:48;;;;;;;10.57;5.18;;;;;;;;;;5077402;28;20052;-72
2023/01/18 00:15:14;;;;;;;7.38;4.90;;;;;;;;;;5076697;28;20056;-69
2023/01/18 00:17:48;;;;;;;8.85;5.35;;;;;;;;;;5076587;28;20049;-69
2023/01/18 00:20:14;;;;;;;7.80;4.82;;;;;;;;;;5069947;28;20053;-69
2023/01/18 00:22:40;;;;;;;12.52;4.70;;;;;;;;;;5070518;28;20064;-71
2023/01/18 00:25:09;;;;;;;5.90;4.43;;;;;;;;;;5069037;28;20837;-72
2023/01/18 00:27:36;;;;;;;6.18;4.45;;;;;;;;;;5067581;28;20491;-71
2023/01/18 00:30:03;;;;;;;8.65;5.00;;;;;;;;;;5073578;28;20055;-72
2023/01/18 00:32:29;;;;;;;6.18;4.47;;;;;;;;;;5070211;28;20049;-72
2023/01/18 00:34:55;;;;;;;8.77;4.70;;;;;;;;;;5066705;28;20499;-72
2023/01/18 00:37:25;;;;;;;5.05;3.80;;;;;;;;;;5066838;28;20049;-71
2023/01/18 00:39:52;;;;;;;10.20;4.40;;;;;;;;;;5068763;28;20520;-72
2023/01/18 00:45:03;;;;;;;8.13;4.22;;;;;;;;;;5068601;28;20538;-72
2023/01/18 00:47:29;;;;;;;4.68;3.60;;;;;;;;;;5066276;28;20049;-72
2023/01/18 00:49:55;;;;;;;7.20;4.15;;;;;;;;;;5068420;28;20495;-72
2023/01/18 00:52:22;;;;;;;6.82;3.60;;;;;;;;;;5066694;28;20062;-72
2023/01/18 00:54:48;;;;;;;7.63;4.63;;;;;;;;;;5065249;28;20064;-72
2023/01/18 00:57:14;;;;;;;10.52;4.45;;;;;;;;;;5066896;28;20064;-72
2023/01/18 00:59:41;;;;;;;5.63;4.43;;;;;;;;;;5077538;28;20048;-71
2023/01/18 01:02:07;;;;;;;7.32;4.55;;;;;;;;;;5084053;28;20107;-72
2023/01/18 01:07:18;;;;;;;7.72;4.18;;;;;;;;;;5087640;28;20531;-71
2023/01/18 01:09:45;;;;;;;6.63;4.05;;;;;;;;;;5080864;28;20052;-70
2023/01/18 01:26:06;;;;;;;9.05;4.57;;;;;;;;;;5068051;28;20479;-69
2023/01/18 01:28:34;;;;;;;8.90;4.47;;;;;;;;;;5065868;28;20135;-72
2023/01/18 01:31:01;;;;;;;7.40;4.60;;;;;;;;;;5067408;28;20061;-73
2023/01/18 01:33:28;;;;;;;5.07;4.15;;;;;;;;;;5064065;28;20502;-72
2023/01/18 01:35:58;;;;;;;8.02;4.65;;;;;;;;;;5068116;28;20059;-72
2023/01/18 01:38:24;;;;;;;6.57;4.10;;;;;;;;;;5065885;28;20060;-68
2023/01/18 01:41:17;;;;;;;7.15;4.53;;;;;;;;;;5067356;28;20049;-70
2023/01/18 01:43:45;;;;;;;10.10;4.93;;;;;;;;;;5065441;28;20057;-71
2023/01/18 01:46:41;;;;;;;9.20;4.78;;;;;;;;;;5067164;28;20142;-72
2023/01/18 01:49:10;;;;;;;10.55;4.95;;;;;;;;;;5065204;28;20148;-70
2023/01/18 01:51:40;;;;;;;6.20;4.18;;;;;;;;;;5068120;28;20467;-71
2023/01/18 01:54:09;;;;;;;9.82;5.25;;;;;;;;;;5066563;28;20045;-71
2023/01/18 01:56:35;;;;;;;6.28;3.90;;;;;;;;;;5067532;28;20080;-71
2023/01/18 01:59:03;;;;;;;5.82;4.28;;;;;;;;;;5064675;28;20433;-71
2023/01/18 02:01:29;;;;;;;6.68;4.25;;;;;;;;;;5067171;28;20056;-69
2023/01/18 02:03:57;;;;;;;8.60;4.35;;;;;;;;;;5066150;28;20118;-71
2023/01/18 02:06:30;;;;;;;7.82;4.60;;;;;;;;;;5067197;28;20092;-71
2023/01/18 02:09:00;;;;;;;9.90;4.53;;;;;;;;;;5065093;28;20059;-71
2023/01/18 02:11:28;;;;;;;4.68;3.85;;;;;;;;;;5067259;28;20140;-71
2023/01/18 02:13:56;;;;;;;5.95;4.40;;;;;;;;;;5065062;28;20060;-71
2023/01/18 02:16:32;;;;;;;6.90;4.55;;;;;;;;;;5065683;28;20060;-71
2023/01/18 02:19:12;;;;;;;9.10;4.15;;;;;;;;;;5066321;28;20125;-71
2023/01/18 02:21:40;;;;;;;7.75;4.85;;;;;;;;;;5065238;28;20053;-69
2023/01/18 02:24:31;;;;;;;6.78;4.43;;;;;;;;;;5064894;28;20608;-70
2023/01/18 02:26:59;;;;;;;8.45;3.95;;;;;;;;;;5067823;28;20065;-71
2023/01/18 02:29:37;;;;;;;6.10;4.13;;;;;;;;;;5066125;28;20494;-71
2023/01/18 02:32:09;;;;;;;8.68;4.10;;;;;;;;;;5066648;28;20575;-71
2023/01/18 02:34:54;;;;;;;4.80;3.97;;;;;;;;;;5064377;28;20470;-71
2023/01/18 02:37:29;;;;;;;8.83;4.17;;;;;;;;;;5066648;28;20502;-70
2023/01/18 02:40:01;;;;;;;7.63;4.43;;;;;;;;;;5067452;28;20370;-71
2023/01/18 02:48:01;;;;;;;;;;;;;;;;;;5065787;28;44834;-69
2023/01/18 02:50:27;;;;;;;;;;;;;;;;;;5064688;28;47388;-69
2023/01/18 02:52:53;;;;;;;;;;;;;;;;;;5065428;28;46859;-70
2023/01/18 02:55:22;;;;;;;5.82;3.95;;;;;;;;;;5062341;28;46162;-73
2023/01/18 02:57:50;;;;;;;4.95;3.85;;;;;;;;;;5066433;28;20048;-70
2023/01/18 03:00:17;;;;;;;7.53;4.68;;;;;;;;;;5066760;28;20084;-70
2023/01/18 03:02:46;;;;;;;6.63;4.43;;;;;;;;;;5065520;28;20134;-70
2023/01/18 03:05:12;;;;;;;13.85;5.10;;;;;;;;;;5065958;28;20452;-67
2023/01/18 03:07:51;;;;;;;7.72;4.30;;;;;;;;;;5066484;28;20868;-75
2023/01/18 03:10:18;;;;;;;4.97;4.13;;;;;;;;;;5065659;28;20081;-72
2023/01/18 03:13:03;;;;;;;8.55;5.25;;;;;;;;;;5066380;28;20056;-71
2023/01/18 03:16:02;;;;;;;13.43;5.18;;;;;;;;;;5065977;28;20055;-72
2023/01/18 03:18:37;;;;;;;7.15;4.55;;;;;;;;;;5066243;28;20542;-72
2023/01/18 03:21:06;;;;;;;10.45;5.18;;;;;;;;;;5069652;28;20466;-69
2023/01/18 03:23:36;;;;;;;5.53;3.70;;;;;;;;;;5066491;28;20045;-72
2023/01/18 03:26:04;;;;;;;6.63;4.15;;;;;;;;;;5070127;28;20115;-71
2023/01/18 03:34:24;;;;;;;8.00;4.30;;;;;;;;;;5060958;28;20500;-71
2023/01/18 03:36:51;;;;;;;6.53;4.30;;;;;;;;;;5067457;28;20052;-71
2023/01/18 03:39:21;;;;;;;6.70;4.70;;;;;;;;;;5069707;28;20059;-71
2023/01/18 03:41:49;;;;;;;5.40;4.28;;;;;;;;;;5069840;28;20056;-72
2023/01/18 03:44:19;;;;;;;6.35;4.22;;;;;;;;;;5068287;28;20053;-71
2023/01/18 03:46:45;;;;;;;10.27;4.80;;;;;;;;;;5068145;28;20596;-70
2023/01/18 03:49:11;;;;;;;9.57;4.55;;;;;;;;;;5068091;28;20045;-69
2023/01/18 03:51:56;;;;;;;6.70;4.90;;;;;;;;;;5068739;28;20045;-71
2023/01/18 03:54:28;;;;;;;5.63;4.35;;;;;;;;;;5068696;28;20119;-72
2023/01/18 03:56:58;;;;;;;7.70;4.63;;;;;;;;;;5070006;28;20053;-69
2023/01/18 03:59:27;;;;;;;6.03;4.70;;;;;;;;;;5069495;28;20087;-72
2023/01/18 04:01:54;;;;;;;6.90;4.63;;;;;;;;;;5068427;28;20499;-72
2023/01/18 04:04:20;;;;;;;6.70;4.95;;;;;;;;;;5066421;28;20466;-71
2023/01/18 04:06:47;;;;;;;6.43;4.07;;;;;;;;;;5069642;28;20057;-70
2023/01/18 04:09:13;;;;;;;8.68;5.38;;;;;;;;;;5067978;28;20495;-71
2023/01/18 04:11:39;;;;;;;7.25;4.60;;;;;;;;;;5069286;28;20049;-72
2023/01/18 04:14:05;;;;;;;7.03;4.45;;;;;;;;;;5067259;28;20517;-69
2023/01/18 04:16:32;;;;;;;5.55;4.47;;;;;;;;;;5069149;28;20052;-71
2023/01/18 04:18:58;;;;;;;6.50;5.07;;;;;;;;;;5069085;28;20136;-70
2023/01/18 04:21:25;;;;;;;10.68;5.10;;;;;;;;;;5068832;28;20057;-72
2023/01/18 04:23:51;;;;;;;10.52;4.88;;;;;;;;;;5067819;28;20045;-72
2023/01/18 04:26:18;;;;;;;7.47;5.18;;;;;;;;;;5069568;28;20572;-70
2023/01/18 04:28:44;;;;;;;9.10;4.57;;;;;;;;;;5068023;28;20535;-71
2023/01/18 04:31:10;;;;;;;6.50;4.43;;;;;;;;;;5068699;28;20060;-71
2023/01/18 04:33:37;;;;;;;8.32;5.07;;;;;;;;;;5067887;28;20053;-71
2023/01/18 04:36:03;;;;;;;6.55;4.93;;;;;;;;;;5068503;28;20507;-69
2023/01/18 04:38:30;;;;;;;8.10;5.30;;;;;;;;;;5068954;28;20538;-72
2023/01/18 04:41:00;;;;;;;7.25;4.57;;;;;;;;;;5068387;28;20377;-72
2023/01/18 04:43:26;;;;;;;7.57;4.85;;;;;;;;;;5062356;28;20055;-71
2023/01/18 04:45:54;;;;;;;8.45;4.88;;;;;;;;;;5067881;28;20205;-69
2023/01/18 04:48:20;;;;;;;6.40;4.78;;;;;;;;;;5068184;28;20045;-71
2023/01/18 04:50:47;;;;;;;9.57;5.28;;;;;;;;;;5068599;28;20052;-71
2023/01/18 04:53:14;;;;;;;11.38;5.43;;;;;;;;;;5067721;28;20431;-71
2023/01/18 04:55:40;;;;;;;10.70;5.88;;;;;;;;;;5067985;28;20091;-68
2023/01/18 04:58:06;;;;;;;9.88;5.60;;;;;;;;;;5068569;28;20052;-71
2023/01/18 05:00:33;;;;;;;8.57;5.65;;;;;;;;;;5067557;28;20110;-71
2023/01/18 05:02:59;;;;;;;8.13;5.43;;;;;;;;;;5067085;28;20223;-69
2023/01/18 05:05:26;;;;;;;10.02;6.35;;;;;;;;;;5068241;28;20148;-70
2023/01/18 05:07:52;;;;;;;7.88;5.75;;;;;;;;;;5067026;28;20537;-71
2023/01/18 05:10:18;;;;;;;11.55;5.90;;;;;;;;;;5066753;28;20053;-71
2023/01/18 05:12:45;;;;;;;9.27;5.75;;;;;;;;;;5067390;28;20087;-71
2023/01/18 05:15:11;;;;;;;11.15;5.47;;;;;;;;;;5067705;28;20049;-70
2023/01/18 05:17:38;;;;;;;11.60;5.95;;;;;;;;;;5066864;28;20049;-70
2023/01/18 05:20:10;;;;;;;8.85;6.10;;;;;;;;;;5066532;28;20425;-73
2023/01/18 05:22:36;;;;;;;7.75;5.60;;;;;;;;;;5067231;28;20119;-71
2023/01/18 05:25:05;;;;;;;7.88;5.50;;;;;;;;;;5066418;28;20562;-73
2023/01/18 05:27:32;;;;;;;9.38;6.30;;;;;;;;;;5066917;28;20049;-73
2023/01/18 05:29:58;;;;;;;8.15;6.22;;;;;;;;;;5067537;28;20053;-70
2023/01/18 05:32:25;;;;;;;10.85;6.18;;;;;;;;;;5067876;28;20529;-70
2023/01/18 05:34:51;;;;;;;7.75;5.80;;;;;;;;;;5066475;28;20057;-71
2023/01/18 05:37:17;;;;;;;14.13;6.43;;;;;;;;;;5066803;28;20045;-71
2023/01/18 05:39:43;;;;;;;11.80;5.28;;;;;;;;;;5067322;28;20606;-70
2023/01/18 05:42:10;;;;;;;10.50;4.97;;;;;;;;;;5067970;28;20451;-71
2023/01/18 05:44:36;;;;;;;7.47;5.63;;;;;;;;;;5066266;28;20053;-71
2023/01/18 05:47:02;;;;;;;7.95;4.70;;;;;;;;;;5065499;28;20063;-71
2023/01/18 05:49:29;;;;;;;8.20;5.22;;;;;;;;;;5065180;28;20049;-72
2023/01/18 05:51:55;;;;;;;7.40;4.80;;;;;;;;;;5063051;28;20495;-71
2023/01/18 05:54:21;;;;;;;6.22;4.40;;;;;;;;;;5064623;28;20053;-72
2023/01/18 05:56:47;;;;;;;10.38;4.80;;;;;;;;;;5066723;28;20544;-72
2023/01/18 05:59:14;;;;;;;11.95;5.10;;;;;;;;;;5066902;28;20048;-70
2023/01/18 06:01:41;;;;;;;8.85;4.78;;;;;;;;;;5067276;28;20059;-71
2023/01/18 06:04:08;;;;;;;6.97;3.92;;;;;;;;;;5067515;28;20052;-72
2023/01/18 06:06:34;;;;;;;7.85;4.60;;;;;;;;;;5066438;28;20057;-71
2023/01/18 06:09:00;;;;;;;7.90;4.25;;;;;;;;;;5054201;28;20126;-70
2023/01/18 06:11:27;;;;;;;10.23;5.47;;;;;;;;;;5062609;28;20138;-72
2023/01/18 06:13:53;;;;;;;7.45;4.57;;;;;;;;;;5065072;28;20049;-71
2023/01/18 06:16:19;;;;;;;5.40;3.55;;;;;;;;;;5066255;28;20534;-70
2023/01/18 06:18:46;;;;;;;7.50;4.13;;;;;;;;;;5072231;28;20589;-71
2023/01/18 06:21:12;;;;;;;9.10;5.07;;;;;;;;;;5087627;28;20106;-68
2023/01/18 06:23:39;;;;;;;7.22;4.15;;;;;;;;;;5086609;28;20052;-72
2023/01/18 06:26:05;;;;;;;6.13;4.10;;;;;;;;;;5082836;28;20073;-72
2023/01/18 06:28:31;;;;;;;7.88;4.03;;;;;;;;;;5065880;28;20053;-71
2023/01/18 06:30:58;;;;;;;8.82;4.32;;;;;;;;;;5067023;28;20143;-70
2023/01/18 06:33:24;;;;;;;12.00;4.90;;;;;;;;;;5066545;28;20049;-72
2023/01/18 06:35:51;;;;;;;7.25;4.13;;;;;;;;;;5070336;28;20052;-72
2023/01/18 06:38:17;;;;;;;7.53;4.35;;;;;;;;;;5073123;28;20064;-72
2023/01/18 06:40:43;;;;;;;7.63;5.10;;;;;;;;;;5085793;28;20064;-72
2023/01/18 06:43:12;;;;;;;11.13;5.10;;;;;;;;;;5072378;28;20232;-72
2023/01/18 06:45:39;;;;;;;7.55;5.40;;;;;;;;;;5068237;28;20235;-71
2023/01/18 06:48:06;;;;;;;9.43;5.60;;;;;;;;;;5071766;28;20514;-72
2023/01/18 06:50:32;;;;;;;11.02;5.68;;;;;;;;;;5066779;28;20052;-71
2023/01/18 06:52:59;;;;;;;12.25;5.70;;;;;;;;;;5067575;28;20530;-71
2023/01/18 06:55:25;;;;;;;8.38;5.30;;;;;;;;;;5067771;28;20535;-69
2023/01/18 06:57:53;;;;;;;9.85;5.20;;;;;;;;;;5067626;28;20507;-72
2023/01/18 07:00:21;;;;;;;11.48;5.95;;;;;;;;;;5063451;28;20061;-71
2023/01/18 07:02:49;;;;;;;10.40;5.30;;;;;;;;;;5064144;28;20049;-72
2023/01/18 07:05:16;;;;;;;10.82;6.05;;;;;;;;;;5061152;28;20053;-69
2023/01/18 07:07:44;;;;;;;13.88;5.65;;;;;;;;;;5069973;28;20053;-70
2023/01/18 07:10:11;;;;;;;14.88;5.93;;;;;;;;;;5077520;28;20136;-70
2023/01/18 07:12:40;;;;;;;7.57;5.03;;;;;;;;;;5066884;28;20053;-70
2023/01/18 07:15:06;;;;;;;10.73;4.75;;;;;;;;;;5083794;28;20055;-72
2023/01/18 07:17:46;;;;;;;9.85;4.85;;;;;;;;;;5087128;28;20461;-70
2023/01/18 07:20:14;;;;;;;8.00;5.15;;;;;;;;;;5086684;28;20518;-69
2023/01/18 07:22:41;;;;;;;9.40;4.18;;;;;;;;;;5085483;28;20140;-71
2023/01/18 07:25:12;;;;;;;9.93;4.93;;;;;;;;;;5066965;28;20044;-71
2023/01/18 07:27:39;;;;;;;7.03;4.20;;;;;;;;;;5064614;28;20234;-71
2023/01/18 07:30:06;;;;;;;7.18;4.47;;;;;;;;;;5064817;28;20140;-71
2023/01/18 07:32:32;;;;;;;9.43;5.20;;;;;;;;;;5065700;28;20142;-70
2023/01/18 07:34:58;;;;;;;7.53;4.35;;;;;;;;;;5062658;28;20482;-71
2023/01/18 07:37:25;;;;;;;7.20;4.72;;;;;;;;;;5066818;28;20080;-72
2023/01/18 07:39:52;;;;;;;10.43;4.47;;;;;;;;;;5065128;28;20144;-71
2023/01/18 07:42:18;;;;;;;10.20;5.28;;;;;;;;;;5065170;28;20077;-70
2023/01/18 07:44:44;;;;;;;7.82;4.18;;;;;;;;;;5068446;28;20092;-71
2023/01/18 07:47:11;;;;;;;5.47;4.05;;;;;;;;;;5067126;28;20114;-72
2023/01/18 07:49:38;;;;;;;5.18;3.75;;;;;;;;;;5066820;28;20053;-70
2023/01/18 07:52:04;;;;;;;5.93;3.90;;;;;;;;;;5063674;28;20143;-72
2023/01/18 07:54:30;;;;;;;9.85;5.22;;;;;;;;;;5065147;28;20037;-72
2023/01/18 07:56:58;;;;;;;6.68;3.85;;;;;;;;;;5064615;28;20569;-68
2023/01/18 07:59:26;;;;;;;5.85;4.00;;;;;;;;;;5064880;28;20577;-71
2023/01/18 08:01:52;;;;;;;7.43;4.30;;;;;;;;;;5066014;28;20059;-72
2023/01/18 08:04:19;;;;;;;7.70;4.68;;;;;;;;;;5064786;28;20069;-71
2023/01/18 08:06:45;;;;;;;7.55;4.22;;;;;;;;;;5064146;28;20317;-72
2023/01/18 08:09:12;;;;;;;10.07;4.65;;;;;;;;;;5066399;28;20052;-72
2023/01/18 08:11:38;;;;;;;8.95;4.65;;;;;;;;;;5064311;28;20076;-70
2023/01/18 08:14:04;;;;;;;8.00;4.13;;;;;;;;;;5064477;28;20063;-70
2023/01/18 08:16:31;;;;;;;7.88;4.22;;;;;;;;;;5065245;28;20507;-72
2023/01/18 08:18:57;;;;;;;6.32;4.15;;;;;;;;;;5066405;28;20134;-70
2023/01/18 08:21:24;;;;;;;9.60;5.47;;;;;;;;;;5064991;28;20519;-71
2023/01/18 08:23:53;;;;;;;8.57;5.03;;;;;;;;;;5068506;28;20487;-72
2023/01/18 08:26:19;;;;;;;6.82;4.63;;;;;;;;;;5065997;28;20303;-69
2023/01/18 08:28:46;;;;;;;10.95;5.65;;;;;;;;;;5061458;28;20053;-69
2023/01/18 08:31:14;;;;;;;10.80;5.78;;;;;;;;;;5064131;28;20065;-69
2023/01/18 08:33:47;;;;;;;9.15;5.25;;;;;;;;;;5066030;28;20106;-72
2023/01/18 08:36:18;;;;;;;6.63;4.70;;;;;;;;;;5065031;28;20056;-72
2023/01/18 08:38:49;;;;;;;11.60;4.55;;;;;;;;;;5062559;28;20533;-70
2023/01/18 08:41:16;;;;;;;8.70;4.68;;;;;;;;;;5064390;28;20049;-70
2023/01/18 08:43:44;;;;;;;6.57;4.45;;;;;;;;;;5065243;28;20103;-71
2023/01/18 08:46:10;;;;;;;9.70;4.65;;;;;;;;;;5079114;28;20052;-70
2023/01/18 08:48:36;;;;;;;11.45;5.50;;;;;;;;;;5065293;28;20053;-72
2023/01/18 08:51:03;;;;;;;10.80;4.88;;;;;;;;;;5064486;28;20049;-72
2023/01/18 08:53:30;;;;;;;7.65;5.50;;;;;;;;;;5072314;28;20056;-71
2023/01/18 08:55:56;;;;;;;7.32;5.28;;;;;;;;;;5064528;28;20546;-72
2023/01/18 08:58:23;;;;;;;7.18;4.90;;;;;;;;;;5060213;28;20755;-72
2023/01/18 09:00:49;;;;;;;9.32;4.75;;;;;;;;;;5063305;28;20059;-69
2023/01/18 09:03:21;;;;;;;9.38;5.28;;;;;;;;;;5063043;28;20057;-72
2023/01/18 09:05:48;;;;;;;6.05;4.38;;;;;;;;;;5062847;28;20057;-72
2023/01/18 09:08:14;;;;;;;6.85;4.13;;;;;;;;;;5065476;28;20544;-71
2023/01/18 09:10:41;;;;;;;9.88;5.85;;;;;;;;;;5068402;28;20053;-71
2023/01/18 09:13:09;;;;;;;8.75;5.88;;;;;;;;;;5064641;28;20053;-72
2023/01/18 09:15:36;;;;;;;10.95;5.68;;;;;;;;;;5063416;28;20045;-70
2023/01/18 09:18:05;;;;;;;7.72;4.78;;;;;;;;;;5055072;28;20084;-72
2023/01/18 09:20:34;;;;;;;11.10;4.93;;;;;;;;;;5063176;28;20056;-69
2023/01/18 09:23:07;;;;;;;9.30;5.43;;;;;;;;;;5059480;28;20045;-69
2023/01/18 09:25:35;;;;;;;8.43;5.72;;;;;;;;;;5058852;28;20149;-71
2023/01/18 09:28:02;;;;;;;7.15;4.90;;;;;;;;;;5064716;28;20083;-70
2023/01/18 09:30:29;;;;;;;10.48;5.07;;;;;;;;;;5076975;28;20524;-71
2023/01/18 09:32:56;;;;;;;12.60;5.32;;;;;;;;;;5085246;28;20131;-72
2023/01/18 09:35:23;;;;;;;8.73;5.47;;;;;;;;;;5070328;28;20106;-71
2023/01/18 09:37:49;;;;;;;9.77;5.00;;;;;;;;;;5063871;28;20060;-71
2023/01/18 09:40:17;;;;;;;8.75;5.45;;;;;;;;;;5062803;28;20053;-72
2023/01/18 09:42:45;;;;;;;8.98;4.90;;;;;;;;;;5067919;28;20053;-71
2023/01/18 09:45:20;;;;;;;7.45;4.90;;;;;;;;;;5075560;28;20083;-71
2023/01/18 09:47:48;;;;;;;13.55;5.65;;;;;;;;;;5062321;28;20148;-72
2023/01/18 09:50:16;;;;;;;9.05;5.22;;;;;;;;;;5058364;28;20053;-69
2023/01/18 09:52:50;;;;;;;9.82;5.53;;;;;;;;;;5063185;28;20045;-69
2023/01/18 09:55:35;;;;;;;10.93;6.68;;;;;;;;;;5059593;28;20857;-71
2023/01/18 09:58:14;;;;;;;10.25;5.40;;;;;;;;;;5062038;28;20144;-73
2023/01/18 10:00:41;;;;;;;8.43;4.97;;;;;;;;;;5077881;28;20056;-69
2023/01/18 10:03:16;;;;;;;11.38;5.70;;;;;;;;;;5084748;28;20053;-73
2023/01/18 10:05:50;;;;;;;7.03;4.70;;;;;;;;;;5083836;28;20060;-67
2023/01/18 10:08:19;;;;;;;10.50;5.72;;;;;;;;;;5076860;28;20149;-72
2023/01/18 10:10:53;;;;;;;11.18;6.53;;;;;;;;;;5061664;28;20053;-72
2023/01/18 10:13:31;;;;;;;12.02;6.43;;;;;;;;;;5064389;28;20083;-72
2023/01/18 10:15:58;;;;;;;9.20;5.25;;;;;;;;;;5063952;28;20165;-71
2023/01/18 10:18:24;;;;;;;10.27;6.15;;;;;;;;;;5061287;28;20048;-70
2023/01/18 10:20:56;;;;;;;11.50;6.00;;;;;;;;;;5062199;28;20059;-72
2023/01/18 10:23:24;;;;;;;13.10;6.15;;;;;;;;;;5061521;28;20049;-71
2023/01/18 10:26:02;;;;;;;10.25;5.88;;;;;;;;;;5060724;28;20060;-71
2023/01/18 10:28:31;;;;;;;11.23;6.13;;;;;;;;;;5061334;28;21022;-73
2023/01/18 10:31:09;;;;;;;10.73;6.53;;;;;;;;;;5061639;28;20517;-70
2023/01/18 10:33:41;;;;;;;8.77;5.85;;;;;;;;;;5057313;28;20577;-72
2023/01/18 10:36:13;;;;;;;9.40;6.63;;;;;;;;;;5067752;28;20539;-71
2023/01/18 10:38:40;;;;;;;13.98;5.97;;;;;;;;;;5062198;28;20124;-72
2023/01/18 10:41:14;;;;;;;13.77;7.18;;;;;;;;;;5061174;28;20052;-72
2023/01/18 10:43:40;;;;;;;12.90;6.43;;;;;;;;;;5059127;28;20374;-70
2023/01/18 10:46:11;;;;;;;9.50;6.22;;;;;;;;;;5061661;28;20049;-72
2023/01/18 10:48:44;;;;;;;12.23;6.28;;;;;;;;;;5062960;28;20587;-71
2023/01/18 10:51:21;;;;;;;9.10;6.22;;;;;;;;;;5068845;28;20052;-70
2023/01/18 10:53:47;;;;;;;11.30;7.07;;;;;;;;;;5043428;28;20255;-72
2023/01/18 10:56:17;;;;;;;9.93;6.72;;;;;;;;;;5059686;28;20049;-69
2023/01/18 10:58:49;;;;;;;11.63;7.00;;;;;;;;;;5062149;28;20060;-68
2023/01/18 11:01:21;;;;;;;11.07;6.57;;;;;;;;;;5057010;28;20133;-71
2023/01/18 11:03:49;;;;;;;11.70;6.63;;;;;;;;;;5075520;28;20213;-68
2023/01/18 11:06:18;;;;;;;10.55;6.32;;;;;;;;;;5063596;28;20061;-70
2023/01/18 11:08:44;;;;;;;8.85;6.50;;;;;;;;;;5071470;28;20068;-72
2023/01/18 11:11:13;;;;;;;13.88;7.43;;;;;;;;;;5063832;28;20144;-72
2023/01/18 11:13:41;;;;;;;8.68;5.68;;;;;;;;;;5064516;28;20781;-71
2023/01/18 11:16:11;;;;;;;12.75;7.20;;;;;;;;;;5063287;28;20433;-72
2023/01/18 11:18:58;;;;;;;14.05;6.90;;;;;;;;;;5061820;28;20135;-69
2023/01/18 11:21:29;;;;;;;12.15;6.70;;;;;;;;;;5077856;28;20044;-72
2023/01/18 11:23:56;;;;;;;13.48;6.38;;;;;;;;;;5068176;28;20054;-71
2023/01/18 11:26:24;;;;;;;11.63;5.85;;;;;;;;;;5067168;28;20053;-72
2023/01/18 11:28:56;;;;;;;10.15;6.53;;;;;;;;;;5063445;28;20064;-72
2023/01/18 11:31:24;;;;;;;9.30;6.60;;;;;;;;;;5063453;28;20049;-72
2023/01/18 11:33:53;;;;;;;12.00;6.03;;;;;;;;;;5063070;28;20537;-73
2023/01/18 11:36:32;;;;;;;11.82;7.45;;;;;;;;;;5061366;28;20523;-71
2023/01/18 11:39:16;;;;;;;9.25;6.10;;;;;;;;;;5063516;28;20060;-69
2023/01/18 11:41:43;;;;;;;10.35;5.70;;;;;;;;;;5069706;28;20052;-69
2023/01/18 11:44:17;;;;;;;9.93;6.03;;;;;;;;;;5066971;28;20057;-71
2023/01/18 11:46:46;;;;;;;10.48;6.30;;;;;;;;;;5062709;28;20045;-72
2023/01/18 11:49:12;;;;;;;12.48;6.68;;;;;;;;;;5060985;28;20045;-70
2023/01/18 11:51:43;;;;;;;12.57;7.13;;;;;;;;;;5064999;28;20060;-68
2023/01/18 11:54:11;;;;;;;8.30;4.88;;;;;;;;;;5062047;28;20522;-69
2023/01/18 11:56:39;;;;;;;11.23;6.30;;;;;;;;;;5091723;28;20115;-71
2023/01/18 11:59:13;;;;;;;8.85;6.50;;;;;;;;;;5071538;28;20061;-70
2023/01/18 12:01:58;;;;;;;12.48;7.50;;;;;;;;;;5065078;28;20045;-71
2023/01/18 12:04:31;;;;;;;7.78;5.57;;;;;;;;;;5068828;28;20127;-74
2023/01/18 12:07:22;;;;;;;13.00;6.82;;;;;;;;;;5081208;28;20750;-70
2023/01/18 12:09:54;;;;;;;9.77;6.18;;;;;;;;;;5056613;28;20529;-73
2023/01/18 12:12:38;;;;;;;9.32;6.93;;;;;;;;;;5064593;28;20455;-73
2023/01/18 12:15:07;;;;;;;16.25;6.20;;;;;;;;;;5066152;28;20053;-72
2023/01/18 12:17:42;;;;;;;11.90;6.63;;;;;;;;;;5085576;28;20523;-72
2023/01/18 12:20:30;;;;;;;11.18;7.18;;;;;;;;;;5070525;28;20560;-72
2023/01/18 12:23:02;;;;;;;8.35;5.70;;;;;;;;;;5067239;28;20493;-71
2023/01/18 12:25:46;;;;;;;9.82;5.47;;;;;;;;;;5070658;28;20579;-70
2023/01/18 12:28:16;;;;;;;10.48;6.03;;;;;;;;;;5071800;28;20060;-69
2023/01/18 12:30:43;;;;;;;9.57;6.43;;;;;;;;;;5066914;28;20151;-69
2023/01/18 12:33:18;;;;;;;8.48;5.80;;;;;;;;;;5074768;28;20566;-74
2023/01/18 12:35:58;;;;;;;10.18;6.32;;;;;;;;;;5075235;28;21023;-72
2023/01/18 12:38:27;;;;;;;13.32;7.05;;;;;;;;;;5081949;28;20100;-70
2023/01/18 12:41:17;;;;;;;8.85;5.43;;;;;;;;;;5082033;28;20049;-70
2023/01/18 12:43:52;;;;;;;9.50;5.82;;;;;;;;;;5045932;28;20135;-70
2023/01/18 12:46:26;;;;;;;9.77;6.00;;;;;;;;;;5063568;28;20431;-71
2023/01/18 12:48:56;;;;;;;11.27;5.43;;;;;;;;;;5064365;28;20060;-74
2023/01/18 12:51:24;;;;;;;7.65;5.30;;;;;;;;;;5067252;28;20551;-70
2023/01/18 12:53:54;;;;;;;9.00;5.40;;;;;;;;;;5065010;28;20135;-74
2023/01/18 12:56:23;;;;;;;13.93;6.10;;;;;;;;;;5063127;28;20458;-70
2023/01/18 12:58:55;;;;;;;6.88;4.22;;;;;;;;;;5067584;28;20793;-74
2023/01/18 13:01:24;;;;;;;6.85;4.18;;;;;;;;;;5065803;28;20148;-72
2023/01/18 13:03:55;;;;;;;7.22;3.70;;;;;;;;;;5085220;28;20090;-73
2023/01/18 13:06:21;;;;;;;7.47;4.50;;;;;;;;;;5075095;28;20580;-73
2023/01/18 13:08:51;;;;;;;7.10;4.80;;;;;;;;;;5078451;28;20498;-72
2023/01/18 13:11:22;;;;;;;5.47;3.60;;;;;;;;;;5068425;28;20045;-72
2023/01/18 13:13:52;;;;;;;6.55;3.75;;;;;;;;;;5079623;28;20083;-73
2023/01/18 13:16:35;;;;;;;6.88;4.40;;;;;;;;;;5063554;28;20068;-72
2023/01/18 13:19:04;;;;;;;4.18;3.17;;;;;;;;;;5079072;28;20568;-73
2023/01/18 13:21:43;;;;;;;9.43;4.18;;;;;;;;;;5060348;28;20107;-71
2023/01/18 13:24:09;;;;;;;6.50;3.67;;;;;;;;;;5065041;28;20514;-70
2023/01/18 13:26:36;;;;;;;4.70;3.15;;;;;;;;;;5062300;28;20750;-70
2023/01/18 13:29:11;;;;;;;8.32;3.47;;;;;;;;;;5061582;28;20045;-71
2023/01/18 13:31:37;;;;;;;4.63;3.25;;;;;;;;;;5058919;28;20045;-71
2023/01/18 13:34:23;;;;;;;5.40;3.33;;;;;;;;;;5044250;28;20081;-70
2023/01/18 13:36:49;;;;;;;2.75;2.38;;;;;;;;;;5065028;28;20097;-71
2023/01/18 13:39:17;;;;;;;6.07;2.83;;;;;;;;;;5064503;28;20356;-71
2023/01/18 13:42:10;;;;;;;5.53;2.38;;;;;;;;;;5064824;28;20518;-70
2023/01/18 13:44:38;;;;;;;3.97;2.25;;;;;;;;;;5054221;28;20053;-69
2023/01/18 13:47:23;;;;;;;9.98;2.78;;;;;;;;;;5064900;28;20049;-70
2023/01/18 13:49:50;;;;;;;6.43;3.20;;;;;;;;;;5062807;28;20080;-70
2023/01/18 13:52:32;;;;;;;8.82;2.72;;;;;;;;;;5065054;28;20361;-71
2023/01/18 13:55:01;;;;;;;8.00;2.65;;;;;;;;;;5064859;28;20045;-70
2023/01/18 13:57:28;;;;;;;12.70;5.20;;;;;;;;;;5058636;28;20060;-68
2023/01/18 13:59:55;;;;;;;3.42;2.20;;;;;;;;;;5061798;28;20056;-69
2023/01/18 14:02:22;;;;;;;7.55;2.95;;;;;;;;;;5063600;28;20107;-70
2023/01/18 14:05:07;;;;;;;5.03;2.75;;;;;;;;;;5072577;28;20056;-71
2023/01/18 14:07:39;;;;;;;5.63;2.58;;;;;;;;;;5064392;28;20495;-71
2023/01/18 14:10:18;;;;;;;6.45;3.33;;;;;;;;;;5066923;28;20088;-71
2023/01/18 14:12:46;;;;;;;3.58;2.53;;;;;;;;;;5084309;28;20075;-70
2023/01/18 14:15:23;;;;;;;5.32;2.78;;;;;;;;;;5067628;28;20045;-69
2023/01/18 14:17:49;;;;;;;3.78;2.58;;;;;;;;;;5064574;28;20055;-71
2023/01/18 14:20:47;;;;;;;13.10;2.72;;;;;;;;;;5064624;28;20049;-71
2023/01/18 14:23:22;;;;;;;7.03;2.53;;;;;;;;;;5064457;28;20144;-69
2023/01/18 14:26:04;;;;;;;4.60;2.90;;;;;;;;;;5071681;28;20051;-69
2023/01/18 14:28:36;;;;;;;2.53;2.33;;;;;;;;;;5058905;28;20527;-70
2023/01/18 14:31:03;;;;;;;2.88;2.45;;;;;;;;;;5050608;28;20045;-69
2023/01/18 14:33:37;;;;;;;4.65;3.05;;;;;;;;;;5061381;28;20766;-71
2023/01/18 14:36:05;;;;;;;6.40;2.75;;;;;;;;;;5063041;28;20057;-69
2023/01/18 14:38:31;;;;;;;4.90;1.55;;;;;;;;;;5064210;28;20053;-70
2023/01/18 14:41:01;;;;;;;5.38;2.38;;;;;;;;;;5077838;28;20049;-71
2023/01/18 14:43:32;;;;;;;2.35;1.77;;;;;;;;;;5070289;28;20586;-70
2023/01/18 14:46:34;;;;;;;2.05;1.60;;;;;;;;;;5060366;28;20053;-68
2023/01/18 14:49:01;;;;;;;5.22;2.55;;;;;;;;;;5058609;28;20484;-70
2023/01/18 14:51:28;;;;;;;5.40;2.10;;;;;;;;;;5057600;28;20049;-72
2023/01/18 14:53:59;;;;;;;2.90;1.98;;;;;;;;;;5058245;28;20061;-71
2023/01/18 14:56:27;;;;;;;5.32;2.50;;;;;;;;;;5060080;28;20095;-70
2023/01/18 14:58:53;;;;;;;6.32;4.00;;;;;;;;;;5060108;28;20041;-71
2023/01/18 15:01:25;;;;;;;4.78;2.63;;;;;;;;;;5060732;28;20063;-69
2023/01/18 15:03:56;;;;;;;4.45;2.38;;;;;;;;;;5058605;28;20075;-71
2023/01/18 15:06:28;;;;;;;3.50;2.10;;;;;;;;;;5061574;28;20045;-71
2023/01/18 15:08:55;;;;;;;3.60;2.45;;;;;;;;;;5061040;28;20060;-71
2023/01/18 15:11:23;;;;;;;9.00;2.45;;;;;;;;;;5041515;28;20103;-70
2023/01/18 15:13:50;;;;;;;4.47;3.03;;;;;;;;;;5060216;28;20493;-70
2023/01/18 15:16:18;;;;;;;2.78;2.20;;;;;;;;;;5062154;28;20049;-71
2023/01/18 15:18:46;;;;;;;5.53;2.65;;;;;;;;;;5051332;28;20135;-71
2023/01/18 15:21:19;;;;;;;3.45;2.40;;;;;;;;;;5063186;28;20049;-71
2023/01/18 15:23:45;;;;;;;2.75;2.13;;;;;;;;;;5065620;28;20533;-72
2023/01/18 15:26:12;;;;;;;2.83;2.33;;;;;;;;;;5066543;28;20462;-69